createdAt,value
2023-05-10T00:00:48.800Z,9.80
2023-05-10T00:03:16.018Z,9.54
2023-05-10T00:05:43.356Z,9.50
2023-05-10T00:08:10.463Z,9.82
2023-05-10T00:10:37.574Z,9.64
2023-05-10T00:13:05.227Z,9.54
2023-05-10T00:15:32.410Z,9.37
2023-05-10T00:17:59.708Z,9.56
2023-05-10T00:20:27.038Z,9.69
2023-05-10T00:22:54.538Z,9.62
2023-05-10T00:25:21.756Z,9.70
2023-05-10T00:27:48.973Z,9.55
2023-05-10T00:30:16.669Z,9.44
2023-05-10T00:32:43.968Z,9.57
2023-05-10T00:35:11.145Z,9.45
2023-05-10T00:37:38.307Z,9.50
2023-05-10T00:40:06.852Z,9.58
2023-05-10T00:42:34.043Z,9.69
2023-05-10T00:45:01.230Z,9.71
2023-05-10T00:47:28.991Z,9.61
2023-05-10T00:49:56.323Z,9.48
2023-05-10T00:52:24.001Z,9.64
2023-05-10T00:54:53.292Z,9.69
2023-05-10T00:57:20.667Z,9.63
2023-05-10T00:59:48.831Z,9.76
2023-05-10T01:02:16.175Z,9.69
2023-05-10T01:04:44.532Z,9.78
2023-05-10T01:07:11.796Z,9.83
2023-05-10T01:09:39.295Z,9.78
2023-05-10T01:12:07.013Z,9.75
2023-05-10T01:14:34.989Z,9.76
2023-05-10T01:17:02.656Z,9.67
2023-05-10T01:19:31.940Z,9.76
2023-05-10T01:22:12.183Z,9.72
2023-05-10T01:25:21.601Z,9.80
2023-05-10T01:28:09.795Z,9.66
2023-05-10T01:31:01.745Z,9.75
2023-05-10T01:33:53.236Z,9.75
2023-05-10T01:36:24.738Z,9.67
2023-05-10T01:38:59.118Z,9.95
2023-05-10T01:41:42.390Z,9.75
2023-05-10T01:44:21.517Z,9.84
2023-05-10T01:47:17.675Z,9.75
2023-05-10T01:49:51.367Z,9.82
2023-05-10T01:52:27.691Z,9.81
2023-05-10T01:54:59.752Z,9.79
2023-05-10T01:57:33.507Z,9.66
2023-05-10T02:00:03.604Z,9.56
2023-05-10T02:02:34.189Z,9.58
2023-05-10T02:05:01.705Z,9.49
2023-05-10T02:07:29.714Z,9.27
2023-05-10T02:09:58.203Z,9.51
2023-05-10T02:12:26.508Z,9.41
2023-05-10T02:14:54.477Z,9.44
2023-05-10T02:17:23.934Z,9.14
2023-05-10T02:19:54.135Z,9.52
2023-05-10T02:22:23.245Z,9.47
2023-05-10T02:24:51.655Z,9.39
2023-05-10T02:27:20.852Z,9.39
2023-05-10T02:29:49.246Z,9.35
2023-05-10T02:32:18.107Z,9.37
2023-05-10T02:34:47.401Z,9.53
2023-05-10T02:37:20.336Z,9.36
2023-05-10T02:39:51.474Z,9.48
2023-05-10T02:42:27.304Z,9.36
2023-05-10T02:45:00.314Z,9.43
2023-05-10T02:47:29.694Z,9.41
2023-05-10T02:49:56.965Z,9.52
2023-05-10T02:52:30.885Z,9.45
2023-05-10T02:55:03.547Z,9.42
2023-05-10T02:57:34.829Z,9.33
2023-05-10T03:00:03.444Z,9.42
2023-05-10T03:02:30.596Z,9.41
2023-05-10T03:04:57.912Z,9.21
2023-05-10T03:07:25.307Z,9.12
2023-05-10T03:09:53.122Z,9.34
2023-05-10T03:12:38.515Z,9.16
2023-05-10T03:15:17.560Z,9.18
2023-05-10T03:17:44.668Z,9.25
2023-05-10T03:20:13.706Z,10.95
2023-05-10T03:22:50.753Z,13.08
2023-05-10T03:25:21.774Z,12.58
2023-05-10T03:27:49.959Z,12.90
2023-05-10T03:30:18.685Z,12.99
2023-05-10T03:32:46.207Z,13.08
2023-05-10T03:35:13.781Z,12.68
2023-05-10T03:37:41.108Z,13.09
2023-05-10T03:40:09.410Z,12.94
2023-05-10T03:42:36.779Z,13.13
2023-05-10T03:45:04.531Z,13.15
2023-05-10T03:47:31.898Z,11.82
2023-05-10T03:49:59.266Z,11.60
2023-05-10T03:52:26.597Z,12.16
2023-05-10T03:54:54.226Z,12.36
2023-05-10T03:57:35.137Z,10.80
2023-05-10T04:00:02.821Z,10.54
2023-05-10T04:02:30.083Z,10.23
2023-05-10T04:04:57.572Z,10.30
2023-05-10T04:07:25.594Z,10.05
2023-05-10T04:09:53.644Z,9.95
2023-05-10T04:12:21.236Z,9.92
2023-05-10T04:14:48.910Z,9.75
2023-05-10T04:17:16.663Z,9.85
2023-05-10T04:19:44.425Z,10.07
2023-05-10T04:22:12.021Z,10.22
2023-05-10T04:24:39.585Z,11.04
2023-05-10T04:27:07.080Z,10.53
2023-05-10T04:29:34.706Z,10.32
2023-05-10T04:32:03.291Z,10.35
2023-05-10T04:34:30.493Z,10.20
2023-05-10T04:36:57.625Z,10.38
2023-05-10T04:39:24.791Z,10.51
2023-05-10T04:41:51.944Z,10.34
2023-05-10T04:44:19.050Z,10.35
2023-05-10T04:46:46.232Z,10.43
2023-05-10T04:49:13.472Z,10.32
2023-05-10T04:51:40.666Z,10.25
2023-05-10T04:54:07.805Z,10.20
2023-05-10T04:56:34.913Z,10.35
2023-05-10T04:59:02.032Z,10.36
2023-05-10T05:01:29.365Z,10.26
2023-05-10T05:03:57.266Z,10.24
2023-05-10T05:06:25.092Z,10.35
2023-05-10T05:08:53.021Z,10.29
2023-05-10T05:11:20.725Z,10.34
2023-05-10T05:13:48.517Z,10.48
2023-05-10T05:16:16.042Z,10.73
2023-05-10T05:18:43.188Z,10.44
2023-05-10T05:21:20.867Z,10.50
2023-05-10T05:23:48.356Z,10.41
2023-05-10T05:26:15.478Z,10.57
2023-05-10T05:28:42.930Z,10.73
2023-05-10T05:31:10.331Z,10.63
2023-05-10T05:33:37.733Z,10.64
2023-05-10T05:36:06.321Z,10.71
2023-05-10T05:38:33.631Z,10.87
2023-05-10T05:41:01.148Z,11.04
2023-05-10T05:43:28.459Z,11.02
2023-05-10T05:45:56.322Z,11.18
2023-05-10T05:48:23.806Z,11.05
2023-05-10T05:50:51.078Z,11.10
2023-05-10T05:53:18.500Z,11.13
2023-05-10T05:55:59.523Z,11.29
2023-05-10T05:58:27.281Z,11.49
2023-05-10T06:00:54.899Z,11.51
2023-05-10T06:03:22.851Z,11.65
2023-05-10T06:05:50.455Z,11.62
2023-05-10T06:08:17.805Z,11.70
2023-05-10T06:10:45.162Z,11.79
2023-05-10T06:13:13.090Z,11.88
2023-05-10T06:15:40.459Z,11.83
2023-05-10T06:18:07.789Z,12.06
2023-05-10T06:20:35.294Z,12.20
2023-05-10T06:23:02.553Z,12.29
2023-05-10T06:25:30.313Z,12.53
2023-05-10T06:27:57.749Z,13.03
2023-05-10T06:30:26.132Z,13.04
2023-05-10T06:32:53.543Z,12.76
2023-05-10T06:35:20.954Z,13.01
2023-05-10T06:37:48.280Z,12.81
2023-05-10T06:40:15.778Z,12.93
2023-05-10T06:42:43.976Z,13.02
2023-05-10T06:45:11.648Z,13.66
2023-05-10T06:47:39.401Z,14.01
2023-05-10T06:50:08.626Z,14.16
2023-05-10T06:52:36.056Z,14.03
2023-05-10T06:55:04.285Z,13.60
2023-05-10T06:57:32.309Z,13.40
2023-05-10T07:00:00.489Z,13.44
2023-05-10T07:02:28.261Z,13.91
2023-05-10T07:04:55.691Z,14.19
2023-05-10T07:07:23.557Z,14.51
2023-05-10T07:09:50.886Z,14.45
2023-05-10T07:12:18.595Z,14.58
2023-05-10T07:14:45.964Z,14.78
2023-05-10T07:17:13.323Z,14.98
2023-05-10T07:19:41.107Z,14.93
2023-05-10T07:22:08.531Z,14.84
2023-05-10T07:24:36.196Z,14.71
2023-05-10T07:27:04.328Z,14.77
2023-05-10T07:29:31.920Z,14.48
2023-05-10T07:31:59.378Z,14.45
2023-05-10T07:34:26.882Z,14.33
2023-05-10T07:36:54.245Z,14.59
2023-05-10T07:39:27.454Z,14.38
2023-05-10T07:41:56.609Z,14.47
2023-05-10T07:44:24.639Z,14.30
2023-05-10T07:46:52.229Z,14.52
2023-05-10T07:49:19.682Z,14.99
2023-05-10T07:51:47.003Z,15.58
2023-05-10T07:54:15.054Z,15.47
2023-05-10T07:56:42.416Z,15.07
2023-05-10T07:59:11.355Z,15.00
2023-05-10T08:01:39.973Z,15.18
2023-05-10T08:04:07.395Z,15.69
2023-05-10T08:06:34.834Z,15.62
2023-05-10T08:09:02.086Z,15.21
2023-05-10T08:11:29.603Z,15.41
2023-05-10T08:13:57.307Z,15.22
2023-05-10T08:16:24.778Z,15.25
2023-05-10T08:18:52.166Z,15.64
2023-05-10T08:21:20.952Z,15.85
2023-05-10T08:23:48.378Z,15.74
2023-05-10T08:26:15.697Z,15.85
2023-05-10T08:28:43.011Z,15.81
2023-05-10T08:31:10.535Z,16.11
2023-05-10T08:33:37.906Z,15.70
2023-05-10T08:36:05.346Z,15.20
2023-05-10T08:38:33.114Z,15.87
2023-05-10T08:41:03.189Z,15.99
2023-05-10T08:43:31.143Z,15.68
2023-05-10T08:46:02.177Z,15.75
2023-05-10T08:48:31.201Z,15.72
2023-05-10T08:51:01.136Z,15.51
2023-05-10T08:53:31.477Z,15.34
2023-05-10T08:55:59.013Z,14.95
2023-05-10T08:58:26.423Z,15.33
2023-05-10T09:00:54.150Z,15.94
2023-05-10T09:03:21.644Z,15.80
2023-05-10T09:05:50.025Z,15.95
2023-05-10T09:08:18.223Z,16.18
2023-05-10T09:10:45.818Z,15.57
2023-05-10T09:13:15.642Z,16.05
2023-05-10T09:15:45.524Z,16.07
2023-05-10T09:18:13.613Z,16.10
2023-05-10T09:20:41.612Z,15.95
2023-05-10T09:23:09.007Z,16.20
2023-05-10T09:25:36.540Z,16.16
2023-05-10T09:28:07.661Z,16.49
2023-05-10T09:30:35.780Z,16.67
2023-05-10T09:33:03.675Z,16.92
2023-05-10T09:35:33.531Z,16.95
2023-05-10T09:38:04.887Z,16.79
2023-05-10T09:40:32.715Z,16.75
2023-05-10T09:43:04.021Z,16.87
2023-05-10T09:45:32.465Z,16.56
2023-05-10T09:48:01.486Z,16.71
2023-05-10T09:50:29.336Z,16.43
2023-05-10T09:52:58.815Z,16.13
2023-05-10T09:55:41.065Z,16.67
2023-05-10T09:58:09.199Z,16.79
2023-05-10T10:00:41.810Z,16.11
2023-05-10T10:03:20.939Z,16.38
2023-05-10T10:06:18.668Z,15.96
2023-05-10T10:09:10.497Z,16.41
2023-05-10T10:11:57.141Z,16.95
2023-05-10T10:14:44.190Z,16.61
2023-05-10T10:17:32.457Z,16.63
2023-05-10T10:20:20.692Z,16.68
2023-05-10T10:22:49.929Z,16.71
2023-05-10T10:25:18.760Z,16.31
2023-05-10T10:27:50.655Z,16.49
2023-05-10T10:30:40.490Z,16.65
2023-05-10T10:33:34.865Z,16.87
2023-05-10T10:36:04.245Z,17.06
2023-05-10T10:39:01.428Z,16.64
2023-05-10T10:41:40.470Z,16.43
2023-05-10T10:44:23.159Z,16.72
2023-05-10T10:47:12.399Z,16.29
2023-05-10T10:49:53.393Z,16.53
2023-05-10T10:52:28.080Z,16.90
2023-05-10T10:55:01.472Z,17.03
2023-05-10T10:57:32.039Z,16.77
2023-05-10T11:00:27.253Z,16.60
2023-05-10T11:02:57.982Z,16.67
2023-05-10T11:05:39.783Z,17.63
2023-05-10T11:08:26.709Z,17.91
2023-05-10T11:11:00.186Z,17.72
2023-05-10T11:13:28.763Z,17.88
2023-05-10T11:15:56.429Z,18.02
2023-05-10T11:18:28.776Z,17.77
2023-05-10T11:21:01.418Z,17.69
2023-05-10T11:23:44.860Z,17.52
2023-05-10T11:26:12.695Z,17.72
2023-05-10T11:28:48.143Z,17.38
2023-05-10T11:31:19.329Z,17.93
2023-05-10T11:33:47.594Z,16.86
2023-05-10T11:36:19.117Z,16.77
2023-05-10T11:38:48.293Z,16.70
2023-05-10T11:41:18.001Z,16.70
2023-05-10T11:43:47.661Z,16.86
2023-05-10T11:46:15.058Z,17.19
2023-05-10T11:48:43.459Z,16.92
2023-05-10T11:51:12.110Z,17.13
2023-05-10T11:53:39.510Z,17.03
2023-05-10T11:56:11.188Z,16.75
2023-05-10T11:58:39.932Z,16.94
2023-05-10T12:01:09.985Z,17.37
2023-05-10T12:03:38.961Z,17.40
2023-05-10T12:06:07.998Z,17.88
2023-05-10T12:08:35.367Z,17.92
2023-05-10T12:11:10.256Z,18.24
2023-05-10T12:13:41.815Z,17.45
2023-05-10T12:16:18.899Z,17.27
2023-05-10T12:18:49.415Z,17.10
2023-05-10T12:21:16.791Z,17.41
2023-05-10T12:23:46.951Z,17.42
2023-05-10T12:26:15.052Z,16.85
2023-05-10T12:28:42.495Z,17.05
2023-05-10T12:31:09.958Z,17.39
2023-05-10T12:33:47.075Z,17.33
2023-05-10T12:36:16.329Z,17.37
2023-05-10T12:38:45.365Z,17.53
2023-05-10T12:41:17.716Z,17.48
2023-05-10T12:43:46.003Z,17.74
2023-05-10T12:46:16.102Z,17.47
2023-05-10T12:48:45.137Z,17.15
2023-05-10T12:51:12.823Z,16.91
2023-05-10T12:53:43.356Z,16.93
2023-05-10T12:56:12.044Z,16.82
2023-05-10T12:58:39.628Z,17.20
2023-05-10T13:01:07.137Z,17.10
2023-05-10T13:03:34.936Z,16.94
2023-05-10T13:06:10.015Z,17.15
2023-05-10T13:08:56.539Z,17.22
2023-05-10T13:11:33.529Z,17.18
2023-05-10T13:14:00.784Z,16.82
2023-05-10T13:16:28.135Z,16.73
2023-05-10T13:18:55.494Z,17.33
2023-05-10T13:21:22.947Z,17.08
2023-05-10T13:23:50.316Z,17.05
2023-05-10T13:26:17.825Z,16.96
2023-05-10T13:28:45.199Z,17.08
2023-05-10T13:31:12.801Z,17.16
2023-05-10T13:33:40.141Z,17.07
2023-05-10T13:36:07.809Z,16.98
2023-05-10T13:38:35.556Z,16.97
2023-05-10T13:41:02.861Z,17.26
2023-05-10T13:43:30.481Z,17.42
2023-05-10T13:45:58.003Z,17.64
2023-05-10T13:48:25.281Z,17.85
2023-05-10T13:50:52.646Z,17.88
2023-05-10T13:53:19.999Z,17.53
2023-05-10T13:55:47.915Z,17.01
2023-05-10T13:58:15.265Z,17.15
2023-05-10T14:00:42.584Z,17.20
2023-05-10T14:03:09.953Z,17.25
2023-05-10T14:05:37.460Z,17.09
2023-05-10T14:08:04.849Z,17.07
2023-05-10T14:10:32.172Z,17.15
2023-05-10T14:12:59.458Z,17.51
2023-05-10T14:15:26.781Z,17.24
2023-05-10T14:17:54.089Z,17.02
2023-05-10T14:20:21.558Z,17.07
2023-05-10T14:22:48.992Z,16.95
2023-05-10T14:25:16.590Z,17.02
2023-05-10T14:27:44.032Z,17.14
2023-05-10T14:30:12.084Z,17.22
2023-05-10T14:32:39.451Z,17.00
2023-05-10T14:35:07.711Z,16.91
2023-05-10T14:37:35.692Z,16.84
2023-05-10T14:40:02.984Z,16.99
2023-05-10T14:42:30.305Z,16.92
2023-05-10T14:44:59.251Z,16.97
2023-05-10T14:47:26.576Z,16.98
2023-05-10T14:49:54.272Z,17.09
2023-05-10T14:52:21.554Z,17.06
2023-05-10T14:54:48.937Z,16.94
2023-05-10T14:57:16.235Z,17.05
2023-05-10T14:59:43.541Z,17.04
2023-05-10T15:02:11.411Z,17.03
2023-05-10T15:04:39.400Z,17.01
2023-05-10T15:07:07.447Z,16.79
2023-05-10T15:09:34.843Z,16.81
2023-05-10T15:12:02.191Z,16.77
2023-05-10T15:14:29.762Z,16.82
2023-05-10T15:16:57.107Z,16.84
2023-05-10T15:19:24.363Z,16.91
2023-05-10T15:21:51.808Z,16.91
2023-05-10T15:24:19.652Z,16.81
2023-05-10T15:26:47.008Z,16.85
2023-05-10T15:29:14.442Z,17.33
2023-05-10T15:31:41.767Z,17.05
2023-05-10T15:34:09.117Z,16.89
2023-05-10T15:36:36.393Z,16.78
2023-05-10T15:39:03.727Z,16.81
2023-05-10T15:41:31.005Z,16.61
2023-05-10T15:43:58.735Z,16.68
2023-05-10T15:46:26.924Z,16.67
2023-05-10T15:48:54.372Z,16.75
2023-05-10T15:51:21.676Z,16.73
2023-05-10T15:54:05.316Z,16.64
2023-05-10T15:56:34.610Z,16.61
2023-05-10T15:59:02.455Z,16.57
2023-05-10T16:01:33.098Z,16.52
2023-05-10T16:04:00.870Z,16.44
2023-05-10T16:06:28.330Z,16.36
2023-05-10T16:08:55.758Z,16.41
2023-05-10T16:11:23.129Z,16.38
2023-05-10T16:13:50.571Z,16.32
2023-05-10T16:16:17.867Z,16.35
2023-05-10T16:18:45.309Z,16.32
2023-05-10T16:21:12.667Z,16.27
2023-05-10T16:23:40.251Z,16.27
2023-05-10T16:26:07.597Z,16.40
2023-05-10T16:28:34.912Z,16.28
2023-05-10T16:31:02.334Z,16.24
2023-05-10T16:33:29.702Z,16.25
2023-05-10T16:35:57.055Z,16.19
2023-05-10T16:38:24.719Z,16.17
2023-05-10T16:40:51.969Z,16.09
2023-05-10T16:43:19.298Z,16.02
2023-05-10T16:45:46.621Z,16.01
2023-05-10T16:48:14.066Z,16.03
2023-05-10T16:50:44.430Z,16.09
2023-05-10T16:53:11.861Z,15.88
2023-05-10T16:55:39.190Z,15.77
2023-05-10T16:58:06.597Z,15.90
2023-05-10T17:00:34.073Z,15.73
2023-05-10T17:03:01.651Z,15.83
2023-05-10T17:05:29.552Z,15.62
2023-05-10T17:07:56.965Z,15.75
2023-05-10T17:10:24.367Z,15.72
2023-05-10T17:12:51.825Z,15.69
2023-05-10T17:15:19.668Z,15.59
2023-05-10T17:17:47.669Z,15.57
2023-05-10T17:20:14.976Z,15.65
2023-05-10T17:22:42.722Z,15.53
2023-05-10T17:25:10.244Z,15.45
2023-05-10T17:27:37.811Z,16.17
2023-05-10T17:30:06.095Z,16.61
2023-05-10T17:32:33.873Z,17.15
2023-05-10T17:35:01.228Z,16.86
2023-05-10T17:37:29.970Z,17.23
2023-05-10T17:39:57.358Z,16.60
2023-05-10T17:42:24.762Z,17.01
2023-05-10T17:44:52.799Z,16.93
2023-05-10T17:47:20.106Z,16.95
2023-05-10T17:49:47.363Z,17.11
2023-05-10T17:52:14.700Z,17.14
2023-05-10T17:54:41.927Z,16.73
2023-05-10T17:57:09.255Z,16.82
2023-05-10T17:59:36.617Z,16.73
2023-05-10T18:02:03.900Z,16.98
2023-05-10T18:04:31.239Z,16.54
2023-05-10T18:06:59.460Z,16.72
2023-05-10T18:09:27.905Z,16.58
2023-05-10T18:11:55.434Z,16.24
2023-05-10T18:14:35.849Z,15.84
2023-05-10T18:17:06.913Z,15.46
2023-05-10T18:19:34.519Z,15.30
2023-05-10T18:22:01.995Z,15.24
2023-05-10T18:24:37.648Z,15.15
2023-05-10T18:27:08.334Z,14.97
2023-05-10T18:29:35.873Z,14.96
2023-05-10T18:32:03.689Z,14.90
2023-05-10T18:34:31.117Z,14.84
2023-05-10T18:36:59.347Z,14.91
2023-05-10T18:39:26.808Z,14.72
2023-05-10T18:41:54.270Z,14.76
2023-05-10T18:44:21.562Z,14.77
2023-05-10T18:46:48.958Z,14.82
2023-05-10T18:49:16.628Z,14.81
2023-05-10T18:51:44.100Z,14.60
2023-05-10T18:54:11.515Z,14.68
2023-05-10T18:56:38.828Z,14.65
2023-05-10T18:59:06.236Z,14.68
2023-05-10T19:01:33.663Z,14.65
2023-05-10T19:04:00.994Z,14.56
2023-05-10T19:06:28.298Z,14.55
2023-05-10T19:08:55.754Z,14.53
2023-05-10T19:11:23.124Z,14.49
2023-05-10T19:13:50.958Z,14.56
2023-05-10T19:16:18.389Z,14.37
2023-05-10T19:18:46.073Z,14.41
2023-05-10T19:21:13.433Z,14.31
2023-05-10T19:23:40.801Z,14.20
2023-05-10T19:26:11.351Z,14.16
2023-05-10T19:28:38.734Z,14.28
2023-05-10T19:31:07.862Z,14.24
2023-05-10T19:33:36.187Z,14.14
2023-05-10T19:36:03.692Z,14.20
2023-05-10T19:38:31.854Z,14.26
2023-05-10T19:40:59.306Z,14.18
2023-05-10T19:43:28.343Z,14.05
2023-05-10T19:45:58.995Z,14.15
2023-05-10T19:48:26.689Z,14.08
2023-05-10T19:50:59.330Z,14.03
2023-05-10T19:53:27.556Z,14.01
2023-05-10T19:55:55.617Z,13.98
2023-05-10T19:58:23.583Z,14.13
2023-05-10T20:00:50.971Z,13.97
2023-05-10T20:03:18.333Z,13.94
2023-05-10T20:05:45.677Z,13.89
2023-05-10T20:08:12.883Z,13.95
2023-05-10T20:10:40.651Z,13.92
2023-05-10T20:13:08.036Z,13.87
2023-05-10T20:15:35.393Z,13.71
2023-05-10T20:18:02.721Z,13.75
2023-05-10T20:20:30.041Z,13.72
2023-05-10T20:22:57.306Z,13.76
2023-05-10T20:25:24.888Z,13.63
2023-05-10T20:27:52.264Z,13.69
2023-05-10T20:30:20.083Z,13.49
2023-05-10T20:32:47.794Z,13.52
2023-05-10T20:35:15.225Z,13.42
2023-05-10T20:37:42.551Z,13.59
2023-05-10T20:40:10.104Z,13.59
2023-05-10T20:42:37.429Z,13.43
2023-05-10T20:45:05.334Z,13.34
2023-05-10T20:47:32.800Z,13.58
2023-05-10T20:50:00.261Z,13.41
2023-05-10T20:52:27.852Z,13.32
2023-05-10T20:54:55.592Z,13.42
2023-05-10T20:57:22.894Z,13.38
2023-05-10T20:59:50.357Z,13.38
2023-05-10T21:02:17.702Z,13.33
2023-05-10T21:04:45.066Z,13.36
2023-05-10T21:07:12.378Z,13.32
2023-05-10T21:09:39.653Z,13.31
2023-05-10T21:12:07.929Z,13.41
2023-05-10T21:14:35.227Z,13.21
2023-05-10T21:17:02.529Z,13.05
2023-05-10T21:19:29.940Z,13.12
2023-05-10T21:21:57.348Z,13.02
2023-05-10T21:24:24.653Z,12.98
2023-05-10T21:26:51.934Z,12.99
2023-05-10T21:29:19.239Z,13.05
2023-05-10T21:31:46.608Z,13.07
2023-05-10T21:34:13.956Z,12.94
2023-05-10T21:36:41.304Z,12.93
2023-05-10T21:39:08.552Z,13.08
2023-05-10T21:41:36.541Z,12.96
2023-05-10T21:44:03.869Z,12.90
2023-05-10T21:46:31.260Z,12.81
2023-05-10T21:49:02.182Z,13.00
2023-05-10T21:51:29.573Z,13.01
2023-05-10T21:53:57.057Z,12.91
2023-05-10T21:56:24.521Z,12.93
2023-05-10T21:58:52.131Z,12.74
2023-05-10T22:01:19.459Z,12.78
2023-05-10T22:03:47.199Z,12.81
2023-05-10T22:06:14.515Z,12.59
2023-05-10T22:08:41.815Z,12.63
2023-05-10T22:11:09.276Z,12.58
2023-05-10T22:13:36.568Z,12.55
2023-05-10T22:16:04.006Z,12.54
2023-05-10T22:18:31.394Z,12.47
2023-05-10T22:20:58.810Z,12.49
2023-05-10T22:23:26.136Z,12.61
2023-05-10T22:25:53.469Z,12.49
2023-05-10T22:28:20.848Z,12.66
2023-05-10T22:30:49.225Z,12.57
2023-05-10T22:33:16.998Z,12.61
2023-05-10T22:35:44.396Z,12.58
2023-05-10T22:38:11.687Z,12.47
2023-05-10T22:40:39.454Z,12.68
2023-05-10T22:43:06.894Z,12.53
2023-05-10T22:45:34.245Z,12.45
2023-05-10T22:48:05.982Z,12.31
2023-05-10T22:50:33.624Z,12.36
2023-05-10T22:53:00.955Z,12.19
2023-05-10T22:55:28.319Z,12.25
2023-05-10T22:57:56.104Z,12.09
2023-05-10T23:00:24.608Z,12.31
2023-05-10T23:02:51.991Z,12.09
2023-05-10T23:05:19.291Z,12.16
2023-05-10T23:07:46.606Z,12.19
2023-05-10T23:10:14.204Z,12.20
2023-05-10T23:12:41.493Z,12.21
2023-05-10T23:15:09.265Z,12.07
2023-05-10T23:17:36.663Z,12.01
2023-05-10T23:20:06.393Z,12.08
2023-05-10T23:22:33.800Z,12.07
2023-05-10T23:25:01.268Z,11.99
2023-05-10T23:27:29.758Z,11.98
2023-05-10T23:29:57.695Z,12.00
2023-05-10T23:32:25.164Z,11.78
2023-05-10T23:34:52.753Z,11.87
2023-05-10T23:37:20.089Z,11.89
2023-05-10T23:39:47.401Z,11.94
2023-05-10T23:42:14.642Z,12.08
2023-05-10T23:44:41.999Z,12.06
2023-05-10T23:47:09.392Z,11.92
2023-05-10T23:49:36.782Z,11.86
2023-05-10T23:52:04.442Z,11.96
2023-05-10T23:54:31.730Z,11.85
2023-05-10T23:56:58.978Z,11.80
2023-05-10T23:59:26.502Z,11.80
